Saint Cloud, Wisconsin
Current Conditions -  °F | °C
As of 12:53 AM on Sunday 26 Oct 2014 (Local Time) from KFLD Reporting Station
Clear Clear  
Wind Chill: 41°   Ceiling: Unl
Heat Index: 46°   Visibility: 10mi
Dew Point: 28°   Wind: 10mph
Humidity: 50%   Direction: 280°W
Pressure: 29.96"   Gusts: NA
Location:  43.82°N, 88.17°W
Report Text: KFLD 260553Z AUTO 28009KT 10SM CLR 08/M02 A2996 RMK AO2 SLP147 T00781022 10128 20072 401830072 53005
Loading
Personal Weather Stations






























Interactive Weather Map
Tropical Storm Tracking
New forecast layout! Learn more

10-Day Weather Forecast

Advertisements
Track Severe Weather on mobile